createdAt,value
2018-07-11T00:00:56.801Z,0.00
2018-07-11T00:01:56.723Z,0.00
2018-07-11T00:02:56.690Z,0.00
2018-07-11T00:03:56.648Z,0.00
2018-07-11T00:04:56.635Z,0.00
2018-07-11T00:05:56.588Z,0.00
2018-07-11T00:06:56.594Z,0.00
2018-07-11T00:07:56.510Z,0.00
2018-07-11T00:08:56.512Z,0.00
2018-07-11T00:09:56.446Z,0.00
2018-07-11T00:10:56.410Z,0.00
2018-07-11T00:11:56.373Z,0.00
2018-07-11T00:12:56.349Z,0.00
2018-07-11T00:13:56.310Z,0.00
2018-07-11T00:14:56.334Z,0.00
2018-07-11T00:15:56.255Z,0.00
2018-07-11T00:16:56.238Z,0.00
2018-07-11T00:17:56.167Z,0.00
2018-07-11T00:18:56.142Z,0.00
2018-07-11T00:19:56.098Z,0.00
2018-07-11T00:20:56.074Z,0.00
2018-07-11T00:21:56.036Z,0.00
2018-07-11T00:22:56.015Z,0.00
2018-07-11T00:23:55.967Z,0.00
2018-07-11T00:24:55.961Z,0.00
2018-07-11T00:25:55.898Z,0.00
2018-07-11T00:26:55.875Z,0.00
2018-07-11T00:27:55.836Z,0.00
2018-07-11T00:28:55.815Z,0.00
2018-07-11T00:29:55.760Z,0.00
2018-07-11T00:30:55.720Z,0.00
2018-07-11T00:31:55.685Z,0.00
2018-07-11T00:32:55.658Z,0.00
2018-07-11T00:33:55.640Z,0.00
2018-07-11T00:34:55.849Z,0.00
2018-07-11T00:35:55.559Z,0.00
2018-07-11T00:36:55.542Z,0.00
2018-07-11T00:37:55.520Z,0.00
2018-07-11T00:38:55.443Z,0.00
2018-07-11T00:39:55.423Z,0.00
2018-07-11T00:40:55.386Z,0.00
2018-07-11T00:41:55.338Z,0.00
2018-07-11T00:42:55.311Z,0.00
2018-07-11T00:43:55.295Z,0.00
2018-07-11T00:44:55.249Z,0.00
2018-07-11T00:45:55.202Z,0.00
2018-07-11T00:46:55.176Z,0.00
2018-07-11T00:47:55.131Z,0.00
2018-07-11T00:48:55.115Z,0.00
2018-07-11T00:49:55.060Z,0.00
2018-07-11T00:50:55.051Z,0.00
2018-07-11T00:51:55.004Z,0.00
2018-07-11T00:52:54.957Z,0.00
2018-07-11T00:53:54.928Z,0.00
2018-07-11T00:54:55.494Z,0.00
2018-07-11T00:55:54.867Z,0.00
2018-07-11T00:56:54.833Z,0.00
2018-07-11T00:57:54.805Z,0.00
2018-07-11T00:58:54.751Z,0.00
2018-07-11T00:59:54.716Z,0.00
2018-07-11T01:00:54.694Z,0.00
2018-07-11T01:01:54.648Z,0.00
2018-07-11T01:02:54.613Z,0.00
2018-07-11T01:03:54.579Z,0.00
2018-07-11T01:04:54.576Z,0.00
2018-07-11T01:05:54.532Z,0.00
2018-07-11T01:06:54.477Z,0.00
2018-07-11T01:07:54.456Z,0.00
2018-07-11T01:08:54.412Z,0.00
2018-07-11T01:09:54.371Z,0.00
2018-07-11T01:10:54.335Z,0.00
2018-07-11T01:11:54.328Z,0.00
2018-07-11T01:12:54.268Z,0.00
2018-07-11T01:13:54.239Z,0.00
2018-07-11T01:14:54.200Z,0.00
2018-07-11T01:15:54.168Z,0.00
2018-07-11T01:16:54.127Z,0.00
2018-07-11T01:17:54.098Z,0.00
2018-07-11T01:18:54.055Z,0.00
2018-07-11T01:19:54.046Z,0.00
2018-07-11T01:20:53.990Z,0.00
2018-07-11T01:21:53.959Z,0.00
2018-07-11T01:22:53.938Z,0.00
2018-07-11T01:23:54.445Z,0.00
2018-07-11T01:24:53.851Z,0.00
2018-07-11T01:25:53.811Z,0.00
2018-07-11T01:26:53.854Z,0.00
2018-07-11T01:27:53.749Z,0.00
2018-07-11T01:28:53.739Z,0.00
2018-07-11T01:29:53.674Z,0.00
2018-07-11T01:30:53.663Z,0.00
2018-07-11T01:31:53.616Z,0.00
2018-07-11T01:32:53.593Z,0.00
2018-07-11T01:33:53.533Z,0.00
2018-07-11T01:34:53.512Z,0.00
2018-07-11T01:35:53.470Z,0.00
2018-07-11T01:36:53.427Z,0.00
2018-07-11T01:37:53.454Z,0.00
2018-07-11T01:38:53.377Z,0.00
2018-07-11T01:39:53.331Z,0.00
2018-07-11T01:40:53.305Z,0.00
2018-07-11T01:41:53.260Z,0.00
2018-07-11T01:42:53.223Z,0.00
2018-07-11T01:43:53.201Z,0.00
2018-07-11T01:44:53.152Z,0.00
2018-07-11T01:45:53.118Z,0.00
2018-07-11T01:46:53.085Z,0.00
2018-07-11T01:47:53.046Z,0.00
2018-07-11T01:48:53.014Z,0.00
2018-07-11T01:49:52.984Z,0.00
2018-07-11T01:50:52.942Z,0.00
2018-07-11T01:51:52.922Z,0.00
2018-07-11T01:52:52.874Z,0.00
2018-07-11T01:53:52.848Z,0.00
2018-07-11T01:54:52.805Z,0.00
2018-07-11T01:55:52.770Z,0.00
2018-07-11T01:56:52.731Z,0.00
2018-07-11T01:57:52.707Z,0.00
2018-07-11T01:58:52.689Z,0.00
2018-07-11T01:59:52.631Z,0.00
2018-07-11T02:00:52.592Z,0.00
2018-07-11T02:01:52.723Z,0.00
2018-07-11T02:02:52.547Z,0.00
2018-07-11T02:03:52.487Z,0.00
2018-07-11T02:04:52.508Z,0.00
2018-07-11T02:05:52.421Z,0.00
2018-07-11T02:06:52.382Z,0.00
2018-07-11T02:07:52.356Z,0.00
2018-07-11T02:08:52.315Z,0.00
2018-07-11T02:09:52.290Z,0.00
2018-07-11T02:10:52.256Z,0.00
2018-07-11T02:11:52.249Z,0.00
2018-07-11T02:12:52.175Z,0.00
2018-07-11T02:13:52.158Z,0.00
2018-07-11T02:14:52.107Z,0.00
2018-07-11T02:15:52.090Z,0.00
2018-07-11T02:16:52.049Z,0.00
2018-07-11T02:17:52.031Z,0.00
2018-07-11T02:18:51.964Z,0.00
2018-07-11T02:19:51.939Z,0.00
2018-07-11T02:20:51.895Z,0.00
2018-07-11T02:21:51.860Z,0.00
2018-07-11T02:22:51.850Z,0.00
2018-07-11T02:23:51.802Z,0.00
2018-07-11T02:24:51.754Z,0.00
2018-07-11T02:25:51.723Z,0.00
2018-07-11T02:26:51.700Z,0.00
2018-07-11T02:27:51.660Z,0.00
2018-07-11T02:28:51.620Z,0.00
2018-07-11T02:29:51.608Z,0.00
2018-07-11T02:30:51.545Z,0.00
2018-07-11T02:31:51.545Z,0.00
2018-07-11T02:32:51.512Z,0.00
2018-07-11T02:33:51.442Z,0.00
2018-07-11T02:34:51.410Z,0.00
2018-07-11T02:35:51.367Z,0.00
2018-07-11T02:36:51.346Z,0.00
2018-07-11T02:37:51.302Z,0.00
2018-07-11T02:38:51.341Z,0.00
2018-07-11T02:39:51.237Z,0.00
2018-07-11T02:40:51.201Z,0.00
2018-07-11T02:41:51.186Z,0.00
2018-07-11T02:42:51.165Z,0.00
2018-07-11T02:43:51.115Z,0.00
2018-07-11T02:44:51.061Z,0.00
2018-07-11T02:45:51.041Z,0.00
2018-07-11T02:46:50.988Z,0.00
2018-07-11T02:47:50.960Z,0.00
2018-07-11T02:48:50.918Z,0.00
2018-07-11T02:49:50.896Z,0.00
2018-07-11T02:50:50.846Z,0.00
2018-07-11T02:51:50.817Z,0.00
2018-07-11T02:52:50.777Z,0.00
2018-07-11T02:53:50.736Z,0.00
2018-07-11T02:54:50.704Z,0.00
2018-07-11T02:55:50.738Z,0.00
2018-07-11T02:56:50.642Z,0.00
2018-07-11T02:57:50.600Z,0.00
2018-07-11T02:58:50.725Z,0.00
2018-07-11T02:59:50.533Z,0.00
2018-07-11T03:00:50.495Z,4.00
2018-07-11T03:01:50.481Z,4.00
2018-07-11T03:02:50.735Z,0.00
2018-07-11T03:03:50.390Z,0.00
2018-07-11T03:04:50.357Z,4.00
2018-07-11T03:05:50.321Z,4.00
2018-07-11T03:06:50.286Z,4.00
2018-07-11T03:07:50.256Z,4.00
2018-07-11T03:08:50.229Z,8.00
2018-07-11T03:09:50.197Z,4.00
2018-07-11T03:10:50.144Z,8.00
2018-07-11T03:11:50.106Z,8.00
2018-07-11T03:12:50.069Z,12.00
2018-07-11T03:13:50.082Z,12.00
2018-07-11T03:14:50.005Z,12.00
2018-07-11T03:15:49.992Z,12.00
2018-07-11T03:16:49.930Z,16.00
2018-07-11T03:17:49.907Z,16.00
2018-07-11T03:18:49.857Z,20.00
2018-07-11T03:19:49.831Z,24.00
2018-07-11T03:20:49.792Z,24.00
2018-07-11T03:21:49.755Z,24.00
2018-07-11T03:22:49.722Z,28.00
2018-07-11T03:23:49.703Z,32.00
2018-07-11T03:24:49.653Z,36.00
2018-07-11T03:25:49.615Z,40.00
2018-07-11T03:26:49.588Z,40.00
2018-07-11T03:27:49.560Z,44.00
2018-07-11T03:28:49.537Z,48.00
2018-07-11T03:29:49.479Z,52.00
2018-07-11T03:30:49.447Z,60.00
2018-07-11T03:31:49.415Z,64.00
2018-07-11T03:32:49.377Z,72.00
2018-07-11T03:33:49.344Z,76.00
2018-07-11T03:34:49.319Z,80.00
2018-07-11T03:35:49.265Z,88.00
2018-07-11T03:36:49.238Z,96.00
2018-07-11T03:37:49.196Z,104.00
2018-07-11T03:38:49.168Z,108.00
2018-07-11T03:39:49.154Z,116.00
2018-07-11T03:40:49.115Z,128.00
2018-07-11T03:41:49.055Z,136.00
2018-07-11T03:42:49.019Z,140.00
2018-07-11T03:43:48.983Z,152.00
2018-07-11T03:44:48.950Z,160.00
2018-07-11T03:45:48.910Z,168.00
2018-07-11T03:46:48.882Z,176.00
2018-07-11T03:47:48.841Z,192.00
2018-07-11T03:48:48.834Z,200.00
2018-07-11T03:49:48.771Z,212.00
2018-07-11T03:50:48.741Z,228.00
2018-07-11T03:51:48.727Z,244.00
2018-07-11T03:52:48.674Z,264.00
2018-07-11T03:53:48.666Z,284.00
2018-07-11T03:54:48.603Z,304.00
2018-07-11T03:55:48.566Z,328.00
2018-07-11T03:56:48.566Z,344.00
2018-07-11T03:57:48.542Z,364.00
2018-07-11T03:58:48.473Z,380.00
2018-07-11T03:59:48.423Z,400.00
2018-07-11T04:00:48.386Z,428.00
2018-07-11T04:01:48.352Z,448.00
2018-07-11T04:02:48.319Z,480.00
2018-07-11T04:03:48.280Z,508.00
2018-07-11T04:04:48.292Z,540.00
2018-07-11T04:05:48.211Z,560.00
2018-07-11T04:06:48.182Z,592.00
2018-07-11T04:07:48.147Z,616.00
2018-07-11T04:08:48.110Z,640.00
2018-07-11T04:09:48.086Z,656.00
2018-07-11T04:10:48.045Z,680.00
2018-07-11T04:11:48.007Z,704.00
2018-07-11T04:12:48.003Z,736.00
2018-07-11T04:13:47.971Z,768.00
2018-07-11T04:14:47.900Z,796.00
2018-07-11T04:15:47.864Z,824.00
2018-07-11T04:16:47.843Z,852.00
2018-07-11T04:17:47.813Z,896.00
2018-07-11T04:18:47.782Z,932.00
2018-07-11T04:19:47.749Z,972.00
2018-07-11T04:20:47.721Z,1020.00
2018-07-11T04:21:47.659Z,1048.00
2018-07-11T04:22:47.639Z,1064.00
2018-07-11T04:23:47.608Z,1088.00
2018-07-11T04:24:47.555Z,1120.00
2018-07-11T04:25:47.516Z,1144.00
2018-07-11T04:26:47.498Z,1172.00
2018-07-11T04:27:47.453Z,1172.00
2018-07-11T04:28:47.428Z,1216.00
2018-07-11T04:29:47.388Z,1236.00
2018-07-11T04:30:47.348Z,1284.00
2018-07-11T04:31:47.315Z,1308.00
2018-07-11T04:32:47.276Z,1328.00
2018-07-11T04:33:47.249Z,1328.00
2018-07-11T04:34:47.244Z,1332.00
2018-07-11T04:35:47.182Z,1328.00
2018-07-11T04:36:47.231Z,1364.00
2018-07-11T04:37:47.113Z,1380.00
2018-07-11T04:38:47.125Z,1364.00
2018-07-11T04:39:47.040Z,1380.00
2018-07-11T04:40:47.012Z,1336.00
2018-07-11T04:41:46.975Z,1364.00
2018-07-11T04:42:46.954Z,1392.00
2018-07-11T04:43:46.902Z,1388.00
2018-07-11T04:44:46.873Z,1440.00
2018-07-11T04:45:46.839Z,1516.00
2018-07-11T04:46:46.801Z,1624.00
2018-07-11T04:47:46.766Z,1632.00
2018-07-11T04:48:46.734Z,1668.00
2018-07-11T04:49:46.706Z,1684.00
2018-07-11T04:50:46.664Z,1716.00
2018-07-11T04:51:46.634Z,1772.00
2018-07-11T04:52:46.694Z,1808.00
2018-07-11T04:53:46.563Z,1800.00
2018-07-11T04:54:46.529Z,1832.00
2018-07-11T04:55:46.512Z,1924.00
2018-07-11T04:56:46.467Z,1916.00
2018-07-11T04:57:46.533Z,1908.00
2018-07-11T04:58:46.417Z,1980.00
2018-07-11T04:59:46.531Z,1988.00
2018-07-11T05:00:46.331Z,1940.00
2018-07-11T05:01:46.295Z,1992.00
2018-07-11T05:02:46.297Z,2012.00
2018-07-11T05:03:46.224Z,2016.00
2018-07-11T05:04:46.265Z,1948.00
2018-07-11T05:05:46.334Z,1996.00
2018-07-11T05:06:46.126Z,2052.00
2018-07-11T05:07:46.101Z,2048.00
2018-07-11T05:08:46.061Z,2064.00
2018-07-11T05:09:46.026Z,2152.00
2018-07-11T05:10:46.037Z,2152.00
2018-07-11T05:11:45.978Z,2252.00
2018-07-11T05:12:45.928Z,2180.00
2018-07-11T05:13:45.897Z,2232.00
2018-07-11T05:14:45.862Z,2312.00
2018-07-11T05:15:45.832Z,2396.00
2018-07-11T05:16:45.793Z,2336.00
2018-07-11T05:17:45.767Z,2388.00
2018-07-11T05:18:45.734Z,2332.00
2018-07-11T05:19:46.020Z,2428.00
2018-07-11T05:20:45.663Z,2468.00
2018-07-11T05:21:45.627Z,2592.00
2018-07-11T05:22:45.596Z,2552.00
2018-07-11T05:23:45.561Z,2628.00
2018-07-11T05:24:45.538Z,2536.00
2018-07-11T05:25:45.494Z,2572.00
2018-07-11T05:26:45.467Z,2512.00
2018-07-11T05:27:45.535Z,2436.00
2018-07-11T05:28:45.400Z,2468.00
2018-07-11T05:29:45.375Z,2456.00
2018-07-11T05:30:45.361Z,1876.00
2018-07-11T05:31:45.303Z,1852.00
2018-07-11T05:32:45.270Z,1984.00
2018-07-11T05:33:45.238Z,2148.00
2018-07-11T05:34:45.207Z,2620.00
2018-07-11T05:35:45.168Z,2504.00
2018-07-11T05:36:45.137Z,2700.00
2018-07-11T05:37:45.102Z,2716.00
2018-07-11T05:38:45.073Z,2452.00
2018-07-11T05:39:45.045Z,1980.00
2018-07-11T05:40:45.007Z,1888.00
2018-07-11T05:41:44.978Z,1948.00
2018-07-11T05:42:44.945Z,2188.00
2018-07-11T05:43:44.913Z,2420.00
2018-07-11T05:44:44.875Z,2524.00
2018-07-11T05:45:44.883Z,2884.00
2018-07-11T05:46:44.810Z,2944.00
2018-07-11T05:47:44.783Z,2868.00
2018-07-11T05:48:44.746Z,2964.00
2018-07-11T05:49:44.718Z,3060.00
2018-07-11T05:50:44.686Z,2664.00
2018-07-11T05:51:44.664Z,2304.00
2018-07-11T05:52:44.624Z,2220.00
2018-07-11T05:53:44.597Z,2540.00
2018-07-11T05:54:44.557Z,2568.00
2018-07-11T05:55:44.582Z,2824.00
2018-07-11T05:56:44.493Z,2980.00
2018-07-11T05:57:45.287Z,3032.00
2018-07-11T05:58:44.434Z,2436.00
2018-07-11T05:59:44.397Z,2252.00
2018-07-11T06:00:44.365Z,2280.00
2018-07-11T06:01:44.332Z,2532.00
2018-07-11T06:02:44.332Z,3268.00
2018-07-11T06:03:44.308Z,3008.00
2018-07-11T06:04:44.236Z,2948.00
2018-07-11T06:05:44.209Z,3336.00
2018-07-11T06:06:44.175Z,3832.00
2018-07-11T06:07:44.144Z,4152.00
2018-07-11T06:08:44.111Z,3752.00
2018-07-11T06:09:44.080Z,3756.00
2018-07-11T06:10:44.050Z,4060.00
2018-07-11T06:11:44.035Z,4268.00
2018-07-11T06:12:43.988Z,4244.00
2018-07-11T06:13:44.035Z,4288.00
2018-07-11T06:14:43.917Z,3660.00
2018-07-11T06:15:43.887Z,3204.00
2018-07-11T06:16:43.857Z,3280.00
2018-07-11T06:17:43.847Z,3476.00
2018-07-11T06:18:43.800Z,7056.00
2018-07-11T06:19:43.768Z,7380.00
2018-07-11T06:20:43.734Z,6952.00
2018-07-11T06:21:43.702Z,7208.00
2018-07-11T06:22:43.667Z,7664.00
2018-07-11T06:23:43.637Z,7848.00
2018-07-11T06:24:43.616Z,7476.00
2018-07-11T06:25:43.574Z,7736.00
2018-07-11T06:26:43.546Z,7440.00
2018-07-11T06:27:43.515Z,7272.00
2018-07-11T06:28:43.483Z,7560.00
2018-07-11T06:29:43.452Z,7540.00
2018-07-11T06:30:43.448Z,5616.00
2018-07-11T06:31:43.388Z,4364.00
2018-07-11T06:32:43.356Z,4096.00
2018-07-11T06:33:43.384Z,5072.00
2018-07-11T06:34:43.300Z,6944.00
2018-07-11T06:35:43.266Z,5768.00
2018-07-11T06:36:43.251Z,7684.00
2018-07-11T06:37:43.204Z,8864.00
2018-07-11T06:38:44.025Z,8968.00
2018-07-11T06:39:43.145Z,8972.00
2018-07-11T06:40:43.113Z,8572.00
2018-07-11T06:41:43.086Z,8112.00
2018-07-11T06:42:43.064Z,8440.00
2018-07-11T06:43:43.020Z,8832.00
2018-07-11T06:44:42.993Z,8940.00
2018-07-11T06:45:42.962Z,8984.00
2018-07-11T06:46:42.928Z,9192.00
2018-07-11T06:47:42.898Z,8804.00
2018-07-11T06:48:42.869Z,8692.00
2018-07-11T06:49:42.837Z,7668.00
2018-07-11T06:50:42.810Z,5368.00
2018-07-11T06:51:42.798Z,5392.00
2018-07-11T06:52:42.744Z,5244.00
2018-07-11T06:53:42.729Z,6712.00
2018-07-11T06:54:42.690Z,8168.00
2018-07-11T06:55:42.654Z,6624.00
2018-07-11T06:56:42.624Z,8284.00
2018-07-11T06:57:42.645Z,8416.00
2018-07-11T06:58:42.565Z,9516.00
2018-07-11T06:59:42.539Z,7976.00
2018-07-11T07:00:42.505Z,7784.00
2018-07-11T07:01:42.494Z,10008.00
2018-07-11T07:02:42.444Z,6464.00
2018-07-11T07:03:42.428Z,5836.00
2018-07-11T07:04:42.388Z,9880.00
2018-07-11T07:05:42.361Z,9740.00
2018-07-11T07:06:42.326Z,6568.00
2018-07-11T07:07:42.297Z,5572.00
2018-07-11T07:08:42.267Z,7884.00
2018-07-11T07:09:42.244Z,7156.00
2018-07-11T07:10:42.210Z,10128.00
2018-07-11T07:11:42.193Z,6624.00
2018-07-11T07:12:42.145Z,4216.00
2018-07-11T07:13:42.121Z,4332.00
2018-07-11T07:14:42.097Z,5816.00
2018-07-11T07:15:42.067Z,5128.00
2018-07-11T07:16:42.054Z,6208.00
2018-07-11T07:17:41.999Z,7588.00
2018-07-11T07:18:41.966Z,10076.00
2018-07-11T07:19:41.940Z,10224.00
2018-07-11T07:20:41.962Z,10288.00
2018-07-11T07:21:41.876Z,10388.00
2018-07-11T07:22:41.847Z,10484.00
2018-07-11T07:23:41.818Z,10556.00
2018-07-11T07:24:41.794Z,10684.00
2018-07-11T07:25:41.761Z,10720.00
2018-07-11T07:26:41.730Z,10716.00
2018-07-11T07:27:41.704Z,10796.00
2018-07-11T07:28:41.696Z,10668.00
2018-07-11T07:29:41.637Z,10656.00
2018-07-11T07:30:41.620Z,10820.00
2018-07-11T07:31:41.582Z,10812.00
2018-07-11T07:32:41.560Z,10840.00
2018-07-11T07:33:41.526Z,10824.00
2018-07-11T07:34:41.519Z,10888.00
2018-07-11T07:35:41.466Z,11012.00
2018-07-11T07:36:41.503Z,11052.00
2018-07-11T07:37:41.415Z,11104.00
2018-07-11T07:38:41.379Z,11080.00
2018-07-11T07:39:41.348Z,11088.00
2018-07-11T07:40:41.317Z,11184.00
2018-07-11T07:41:41.290Z,11364.00
2018-07-11T07:42:41.263Z,11348.00
2018-07-11T07:43:41.243Z,11400.00
2018-07-11T07:44:41.196Z,11400.00
2018-07-11T07:45:41.176Z,11504.00
2018-07-11T07:46:41.147Z,11524.00
2018-07-11T07:47:41.116Z,11580.00
2018-07-11T07:48:41.087Z,11584.00
2018-07-11T07:49:41.077Z,11712.00
2018-07-11T07:50:41.032Z,11804.00
2018-07-11T07:51:41.003Z,11660.00
2018-07-11T07:52:40.979Z,11916.00
2018-07-11T07:53:40.944Z,12004.00
2018-07-11T07:54:40.919Z,9468.00
2018-07-11T07:55:40.888Z,12036.00
2018-07-11T07:56:40.872Z,11900.00
2018-07-11T07:57:40.832Z,10636.00
2018-07-11T07:58:40.801Z,12224.00
2018-07-11T07:59:41.364Z,12032.00
2018-07-11T08:00:40.746Z,12028.00
2018-07-11T08:01:40.718Z,12252.00
2018-07-11T08:02:40.694Z,12300.00
2018-07-11T08:03:40.660Z,12368.00
2018-07-11T08:04:40.631Z,12380.00
2018-07-11T08:05:40.605Z,12288.00
2018-07-11T08:06:40.579Z,12520.00
2018-07-11T08:07:40.549Z,12528.00
2018-07-11T08:08:40.523Z,12712.00
2018-07-11T08:09:40.501Z,12616.00
2018-07-11T08:10:40.462Z,12764.00
2018-07-11T08:11:40.460Z,12968.00
2018-07-11T08:12:40.427Z,12880.00
2018-07-11T08:13:40.385Z,12888.00
2018-07-11T08:14:40.357Z,11456.00
2018-07-11T08:15:40.331Z,6904.00
2018-07-11T08:16:40.300Z,6404.00
2018-07-11T08:17:40.277Z,11792.00
2018-07-11T08:18:40.242Z,9908.00
2018-07-11T08:19:40.239Z,6148.00
2018-07-11T08:20:40.196Z,5560.00
2018-07-11T08:21:40.165Z,5600.00
2018-07-11T08:22:40.140Z,5640.00
2018-07-11T08:23:40.113Z,6124.00
2018-07-11T08:24:40.087Z,13804.00
2018-07-11T08:25:40.057Z,6272.00
2018-07-11T08:26:40.043Z,6248.00
2018-07-11T08:27:40.001Z,5264.00
2018-07-11T08:28:39.977Z,5432.00
2018-07-11T08:29:39.952Z,5900.00
2018-07-11T08:30:39.918Z,5296.00
2018-07-11T08:31:39.897Z,5388.00
2018-07-11T08:32:39.873Z,7328.00
2018-07-11T08:33:39.837Z,6376.00
2018-07-11T08:34:39.824Z,12084.00
2018-07-11T08:35:39.784Z,9328.00
2018-07-11T08:36:39.758Z,14972.00
2018-07-11T08:37:39.729Z,14884.00
2018-07-11T08:38:39.704Z,12204.00
2018-07-11T08:39:39.675Z,6196.00
2018-07-11T08:40:39.646Z,6472.00
2018-07-11T08:41:39.618Z,16064.00
2018-07-11T08:42:39.635Z,15680.00
2018-07-11T08:43:39.562Z,14528.00
2018-07-11T08:44:39.547Z,14924.00
2018-07-11T08:45:39.509Z,16608.00
2018-07-11T08:46:39.485Z,8076.00
2018-07-11T08:47:39.514Z,8224.00
2018-07-11T08:48:39.431Z,10944.00
2018-07-11T08:49:39.404Z,6628.00
2018-07-11T08:50:39.375Z,5360.00
2018-07-11T08:51:39.348Z,4856.00
2018-07-11T08:52:39.326Z,4560.00
2018-07-11T08:53:39.296Z,4304.00
2018-07-11T08:54:39.272Z,4064.00
2018-07-11T08:55:39.246Z,3996.00
2018-07-11T08:56:39.219Z,4152.00
2018-07-11T08:57:39.191Z,4616.00
2018-07-11T08:58:39.163Z,5476.00
2018-07-11T08:59:39.163Z,13148.00
2018-07-11T09:00:39.106Z,7696.00
2018-07-11T09:01:39.082Z,14352.00
2018-07-11T09:02:39.104Z,11720.00
2018-07-11T09:03:39.023Z,16000.00
2018-07-11T09:04:39.003Z,12652.00
2018-07-11T09:05:38.978Z,13444.00
2018-07-11T09:06:38.948Z,15252.00
2018-07-11T09:07:38.917Z,15148.00
2018-07-11T09:08:38.894Z,15380.00
2018-07-11T09:09:38.865Z,14824.00
2018-07-11T09:10:38.942Z,13908.00
2018-07-11T09:11:38.818Z,8608.00
2018-07-11T09:12:38.787Z,13772.00
2018-07-11T09:13:38.758Z,15296.00
2018-07-11T09:14:38.739Z,13468.00
2018-07-11T09:15:38.706Z,6480.00
2018-07-11T09:16:38.683Z,5992.00
2018-07-11T09:17:38.659Z,5096.00
2018-07-11T09:18:38.639Z,4736.00
2018-07-11T09:19:38.606Z,4976.00
2018-07-11T09:20:38.582Z,4720.00
2018-07-11T09:21:38.554Z,4572.00
2018-07-11T09:22:38.529Z,4356.00
2018-07-11T09:23:38.507Z,4224.00
2018-07-11T09:24:38.481Z,4164.00
2018-07-11T09:25:38.465Z,4308.00
2018-07-11T09:26:38.426Z,4740.00
2018-07-11T09:27:38.402Z,5216.00
2018-07-11T09:28:38.373Z,8164.00
2018-07-11T09:29:38.433Z,8740.00
2018-07-11T09:30:38.388Z,13020.00
2018-07-11T09:31:38.298Z,11432.00
2018-07-11T09:32:38.268Z,7932.00
2018-07-11T09:33:38.236Z,6328.00
2018-07-11T09:34:38.217Z,6564.00
2018-07-11T09:35:38.181Z,6660.00
2018-07-11T09:36:38.160Z,7840.00
2018-07-11T09:37:38.183Z,11600.00
2018-07-11T09:38:38.108Z,13756.00
2018-07-11T09:39:38.080Z,15048.00
2018-07-11T09:40:38.052Z,15004.00
2018-07-11T09:41:38.024Z,15060.00
2018-07-11T09:42:38.000Z,14972.00
2018-07-11T09:43:37.975Z,15136.00
2018-07-11T09:44:37.951Z,14904.00
2018-07-11T09:45:37.977Z,15112.00
2018-07-11T09:46:37.896Z,14332.00
2018-07-11T09:47:37.872Z,14252.00
2018-07-11T09:48:37.848Z,14456.00
2018-07-11T09:49:37.824Z,14492.00
2018-07-11T09:50:37.795Z,13864.00
2018-07-11T09:51:37.782Z,8172.00
2018-07-11T09:52:37.747Z,8272.00
2018-07-11T09:53:37.716Z,14216.00
2018-07-11T09:54:37.697Z,14944.00
2018-07-11T09:55:37.672Z,15076.00
2018-07-11T09:56:37.653Z,15236.00
2018-07-11T09:57:37.668Z,16160.00
2018-07-11T09:58:37.598Z,15556.00
2018-07-11T09:59:37.574Z,15464.00
2018-07-11T10:00:37.550Z,15212.00
2018-07-11T10:01:37.527Z,15260.00
2018-07-11T10:02:37.503Z,15308.00
2018-07-11T10:03:37.477Z,15428.00
2018-07-11T10:04:37.450Z,15668.00
2018-07-11T10:05:37.430Z,15672.00
2018-07-11T10:06:37.404Z,15456.00
2018-07-11T10:07:37.378Z,15128.00
2018-07-11T10:08:37.370Z,15208.00
2018-07-11T10:09:37.339Z,15140.00
2018-07-11T10:10:37.308Z,15120.00
2018-07-11T10:11:37.287Z,15136.00
2018-07-11T10:12:37.261Z,15484.00
2018-07-11T10:13:37.236Z,15776.00
2018-07-11T10:14:37.223Z,12292.00
2018-07-11T10:15:37.192Z,15152.00
2018-07-11T10:16:37.168Z,15808.00
2018-07-11T10:17:37.138Z,7672.00
2018-07-11T10:18:37.119Z,16000.00
2018-07-11T10:19:37.098Z,7252.00
2018-07-11T10:20:37.075Z,7652.00
2018-07-11T10:21:37.077Z,7664.00
2018-07-11T10:22:37.024Z,6976.00
2018-07-11T10:23:37.003Z,15680.00
2018-07-11T10:24:36.979Z,6668.00
2018-07-11T10:25:36.953Z,6604.00
2018-07-11T10:26:36.932Z,14904.00
2018-07-11T10:27:36.910Z,12024.00
2018-07-11T10:28:36.891Z,15968.00
2018-07-11T10:29:36.861Z,14848.00
2018-07-11T10:30:36.826Z,15744.00
2018-07-11T10:31:36.814Z,9628.00
2018-07-11T10:32:36.788Z,8812.00
2018-07-11T10:33:36.817Z,13440.00
2018-07-11T10:34:36.741Z,7940.00
2018-07-11T10:35:36.724Z,14536.00
2018-07-11T10:36:36.688Z,14008.00
2018-07-11T10:37:36.661Z,14864.00
2018-07-11T10:38:36.634Z,15872.00
2018-07-11T10:39:36.617Z,13996.00
2018-07-11T10:40:36.593Z,11820.00
2018-07-11T10:41:36.584Z,7816.00
2018-07-11T10:42:36.549Z,7204.00
2018-07-11T10:43:36.516Z,6496.00
2018-07-11T10:44:36.498Z,6144.00
2018-07-11T10:45:36.474Z,5996.00
2018-07-11T10:46:36.454Z,5888.00
2018-07-11T10:47:36.424Z,5864.00
2018-07-11T10:48:36.713Z,5232.00
2018-07-11T10:49:36.700Z,5040.00
2018-07-11T10:50:36.391Z,4808.00
2018-07-11T10:51:36.324Z,4648.00
2018-07-11T10:52:36.646Z,4560.00
2018-07-11T10:53:36.272Z,5012.00
2018-07-11T10:54:36.646Z,4736.00
2018-07-11T10:55:36.223Z,4892.00
2018-07-11T10:56:36.203Z,5244.00
2018-07-11T10:57:36.228Z,5728.00
2018-07-11T10:58:36.151Z,13808.00
2018-07-11T10:59:36.127Z,14208.00
2018-07-11T11:00:37.246Z,13052.00
2018-07-11T11:01:36.097Z,13648.00
2018-07-11T11:02:36.090Z,13744.00
2018-07-11T11:03:36.020Z,6296.00
2018-07-11T11:04:36.007Z,6212.00
2018-07-11T11:05:35.974Z,9096.00
2018-07-11T11:06:35.941Z,6152.00
2018-07-11T11:07:35.917Z,5696.00
2018-07-11T11:08:35.896Z,5432.00
2018-07-11T11:09:35.868Z,5220.00
2018-07-11T11:10:35.859Z,5072.00
2018-07-11T11:11:35.816Z,5044.00
2018-07-11T11:12:35.794Z,5212.00
2018-07-11T11:13:35.773Z,5424.00
2018-07-11T11:14:35.798Z,5668.00
2018-07-11T11:15:35.716Z,5788.00
2018-07-11T11:16:35.699Z,6868.00
2018-07-11T11:17:35.667Z,13208.00
2018-07-11T11:18:35.637Z,13604.00
2018-07-11T11:19:35.611Z,13276.00
2018-07-11T11:20:35.591Z,13392.00
2018-07-11T11:21:35.561Z,13824.00
2018-07-11T11:22:36.278Z,13680.00
2018-07-11T11:23:35.513Z,13428.00
2018-07-11T11:24:35.485Z,13256.00
2018-07-11T11:25:35.469Z,13168.00
2018-07-11T11:26:35.441Z,13140.00
2018-07-11T11:27:35.592Z,12916.00
2018-07-11T11:28:35.388Z,12836.00
2018-07-11T11:29:35.365Z,12696.00
2018-07-11T11:30:35.348Z,12484.00
2018-07-11T11:31:35.316Z,12412.00
2018-07-11T11:32:35.288Z,12272.00
2018-07-11T11:33:35.266Z,12128.00
2018-07-11T11:34:35.244Z,12168.00
2018-07-11T11:35:35.221Z,12360.00
2018-07-11T11:36:35.201Z,12520.00
2018-07-11T11:37:35.172Z,12668.00
2018-07-11T11:38:35.154Z,12968.00
2018-07-11T11:39:35.128Z,13228.00
2018-07-11T11:40:35.099Z,9588.00
2018-07-11T11:41:35.143Z,5064.00
2018-07-11T11:42:35.288Z,4640.00
2018-07-11T11:43:35.030Z,4516.00
2018-07-11T11:44:35.015Z,10816.00
2018-07-11T11:45:34.987Z,5332.00
2018-07-11T11:46:34.962Z,12676.00
2018-07-11T11:47:34.932Z,12872.00
2018-07-11T11:48:34.910Z,12612.00
2018-07-11T11:49:34.888Z,12760.00
2018-07-11T11:50:34.868Z,13000.00
2018-07-11T11:51:34.842Z,13080.00
2018-07-11T11:52:34.816Z,13064.00
2018-07-11T11:53:34.794Z,12996.00
2018-07-11T11:54:34.770Z,4956.00
2018-07-11T11:55:34.743Z,12812.00
2018-07-11T11:56:34.720Z,5292.00
2018-07-11T11:57:34.722Z,5464.00
2018-07-11T11:58:34.733Z,13364.00
2018-07-11T11:59:34.654Z,5896.00
2018-07-11T12:00:34.625Z,10252.00
2018-07-11T12:01:34.657Z,5688.00
2018-07-11T12:02:34.580Z,13428.00
2018-07-11T12:03:34.565Z,5684.00
2018-07-11T12:04:34.533Z,5600.00
2018-07-11T12:05:34.558Z,5336.00
2018-07-11T12:06:34.486Z,5264.00
2018-07-11T12:07:34.459Z,5004.00
2018-07-11T12:08:34.436Z,4836.00
2018-07-11T12:09:34.866Z,4852.00
2018-07-11T12:10:34.389Z,4912.00
2018-07-11T12:11:34.363Z,5200.00
2018-07-11T12:12:34.335Z,12756.00
2018-07-11T12:13:34.321Z,13016.00
2018-07-11T12:14:34.873Z,7244.00
2018-07-11T12:15:34.268Z,8664.00
2018-07-11T12:16:34.235Z,6840.00
2018-07-11T12:17:34.223Z,13556.00
2018-07-11T12:18:34.187Z,13348.00
2018-07-11T12:19:34.158Z,13296.00
2018-07-11T12:20:34.138Z,13844.00